createdAt,value
2022-09-10T00:00:47.487Z,99.99
2022-09-10T00:01:48.482Z,99.99
2022-09-10T00:02:48.706Z,99.99
2022-09-10T00:03:49.897Z,99.99
2022-09-10T00:04:50.181Z,99.99
2022-09-10T00:05:50.793Z,99.99
2022-09-10T00:06:51.705Z,99.99
2022-09-10T00:07:51.595Z,99.99
2022-09-10T00:08:52.488Z,99.99
2022-09-10T00:09:53.697Z,99.99
2022-09-10T00:10:54.407Z,99.99
2022-09-10T00:11:55.328Z,99.99
2022-09-10T00:12:56.535Z,99.99
2022-09-10T00:13:57.207Z,99.99
2022-09-10T00:14:58.403Z,99.99
2022-09-10T00:15:59.121Z,99.99
2022-09-10T00:16:59.864Z,99.99
2022-09-10T00:18:00.801Z,99.99
2022-09-10T00:19:01.478Z,99.99
2022-09-10T00:20:02.107Z,99.99
2022-09-10T00:21:03.019Z,99.99
2022-09-10T00:22:03.927Z,99.99
2022-09-10T00:23:04.121Z,99.99
2022-09-10T00:24:04.258Z,99.99
2022-09-10T00:25:08.197Z,99.99
2022-09-10T00:26:05.543Z,99.99
2022-09-10T00:27:05.775Z,99.99
2022-09-10T00:28:05.677Z,99.99
2022-09-10T00:29:07.007Z,99.99
2022-09-10T00:30:06.927Z,99.99
2022-09-10T00:31:07.910Z,99.99
2022-09-10T00:32:08.133Z,99.99
2022-09-10T00:33:08.764Z,99.99
2022-09-10T00:34:09.486Z,99.99
2022-09-10T00:35:10.076Z,99.99
2022-09-10T00:36:11.069Z,99.99
2022-09-10T00:37:11.979Z,99.99
2022-09-10T00:38:12.175Z,99.99
2022-09-10T00:39:13.401Z,99.99
2022-09-10T00:40:13.340Z,99.99
2022-09-10T00:41:13.953Z,99.99
2022-09-10T00:42:14.464Z,99.99
2022-09-10T00:43:14.948Z,99.99
2022-09-10T00:44:16.029Z,99.99
2022-09-10T00:45:16.244Z,99.99
2022-09-10T00:46:17.219Z,99.99
2022-09-10T00:47:17.832Z,99.99
2022-09-10T00:48:19.040Z,99.99
2022-09-10T00:49:19.965Z,99.99
2022-09-10T00:50:20.576Z,99.99
2022-09-10T00:51:21.504Z,99.99
2022-09-10T00:52:22.118Z,99.99
2022-09-10T00:53:22.880Z,99.99
2022-09-10T00:54:23.326Z,99.99
2022-09-10T00:55:23.930Z,99.99
2022-09-10T00:56:24.262Z,99.99
2022-09-10T00:57:25.277Z,99.99
2022-09-10T00:58:25.179Z,99.99
2022-09-10T00:59:26.533Z,99.99
2022-09-10T01:00:26.768Z,99.99
2022-09-10T01:01:27.464Z,99.99
2022-09-10T01:02:28.198Z,99.99
2022-09-10T01:03:30.897Z,99.99
2022-09-10T01:04:29.625Z,99.99
2022-09-10T01:05:30.109Z,99.99
2022-09-10T01:06:30.302Z,99.99
2022-09-10T01:07:30.910Z,99.99
2022-09-10T01:08:31.494Z,99.99
2022-09-10T01:09:31.877Z,99.99
2022-09-10T01:10:32.377Z,99.99
2022-09-10T01:11:34.722Z,99.99
2022-09-10T01:12:35.946Z,99.99
2022-09-10T01:13:33.562Z,99.99
2022-09-10T01:14:33.846Z,99.99
2022-09-10T01:15:34.770Z,99.99
2022-09-10T01:16:34.718Z,99.99
2022-09-10T01:17:36.001Z,99.99
2022-09-10T01:18:37.054Z,99.99
2022-09-10T01:19:37.831Z,99.99
2022-09-10T01:20:38.027Z,99.99
2022-09-10T01:21:38.958Z,99.99
2022-09-10T01:22:38.866Z,99.99
2022-09-10T01:23:39.458Z,99.99
2022-09-10T01:24:39.893Z,99.99
2022-09-10T01:25:40.377Z,99.99
2022-09-10T01:26:40.286Z,99.99
2022-09-10T01:27:41.536Z,99.99
2022-09-10T01:28:41.810Z,99.99
2022-09-10T01:29:41.707Z,99.99
2022-09-10T01:30:42.626Z,99.99
2022-09-10T01:31:42.984Z,99.99
2022-09-10T01:32:43.489Z,99.99
2022-09-10T01:33:44.078Z,99.99
2022-09-10T01:34:45.071Z,99.99
2022-09-10T01:35:44.963Z,99.99
2022-09-10T01:36:46.398Z,99.99
2022-09-10T01:37:47.310Z,99.99
2022-09-10T01:38:47.628Z,99.99
2022-09-10T01:39:48.677Z,99.99
2022-09-10T01:40:48.797Z,99.99
2022-09-10T01:41:48.987Z,99.99
2022-09-10T01:42:49.415Z,99.99
2022-09-10T01:43:50.325Z,99.99
2022-09-10T01:44:51.043Z,99.99
2022-09-10T01:45:51.343Z,99.99
2022-09-10T01:46:52.475Z,99.99
2022-09-10T01:47:52.958Z,99.99
2022-09-10T01:48:53.869Z,99.99
2022-09-10T01:49:54.517Z,99.99
2022-09-10T01:50:55.441Z,99.99
2022-09-10T01:51:55.371Z,99.99
2022-09-10T01:52:56.553Z,99.99
2022-09-10T01:53:56.890Z,99.99
2022-09-10T01:54:57.316Z,99.99
2022-09-10T01:55:58.533Z,99.99
2022-09-10T01:56:59.417Z,99.99
2022-09-10T01:57:59.942Z,99.99
2022-09-10T01:59:00.140Z,99.99
2022-09-10T02:00:00.343Z,99.99
2022-09-10T02:01:01.030Z,99.99
2022-09-10T02:02:01.576Z,99.99
2022-09-10T02:03:02.376Z,99.99
2022-09-10T02:04:02.723Z,99.99
2022-09-10T02:05:04.021Z,99.99
2022-09-10T02:06:04.650Z,99.99
2022-09-10T02:07:05.282Z,99.99
2022-09-10T02:08:06.200Z,99.99
2022-09-10T02:09:06.214Z,99.99
2022-09-10T02:10:06.545Z,99.99
2022-09-10T02:11:07.730Z,99.99
2022-09-10T02:12:07.642Z,99.99
2022-09-10T02:13:08.590Z,99.99
2022-09-10T02:14:09.069Z,99.99
2022-09-10T02:15:09.923Z,99.99
2022-09-10T02:16:10.588Z,99.99
2022-09-10T02:17:10.951Z,99.99
2022-09-10T02:18:11.573Z,99.99
2022-09-10T02:19:11.466Z,99.99
2022-09-10T02:20:12.727Z,99.99
2022-09-10T02:21:13.336Z,99.99
2022-09-10T02:22:13.973Z,99.99
2022-09-10T02:23:14.587Z,99.99
2022-09-10T02:24:15.222Z,99.99
2022-09-10T02:25:15.945Z,99.99
2022-09-10T02:26:16.907Z,99.99
2022-09-10T02:27:17.816Z,99.99
2022-09-10T02:28:18.489Z,99.99
2022-09-10T02:29:18.374Z,99.99
2022-09-10T02:30:19.304Z,99.99
2022-09-10T02:31:19.959Z,99.99
2022-09-10T02:32:21.026Z,99.99
2022-09-10T02:33:21.341Z,99.99
2022-09-10T02:34:21.942Z,99.99
2022-09-10T02:35:22.225Z,99.99
2022-09-10T02:36:22.698Z,99.99
2022-09-10T02:37:23.411Z,99.99
2022-09-10T02:38:24.339Z,99.99
2022-09-10T02:39:24.825Z,99.99
2022-09-10T02:40:24.762Z,99.99
2022-09-10T02:41:25.372Z,99.99
2022-09-10T02:42:25.981Z,99.99
2022-09-10T02:43:26.627Z,99.99
2022-09-10T02:44:27.535Z,99.99
2022-09-10T02:45:28.927Z,99.99
2022-09-10T02:46:29.441Z,99.99
2022-09-10T02:47:30.687Z,99.99
2022-09-10T02:48:31.618Z,99.99
2022-09-10T02:49:32.630Z,99.99
2022-09-10T02:50:33.248Z,99.99
2022-09-10T02:51:34.164Z,99.99
2022-09-10T02:52:35.055Z,99.99
2022-09-10T02:53:35.943Z,99.99
2022-09-10T02:54:36.138Z,99.99
2022-09-10T02:55:36.253Z,99.99
2022-09-10T02:56:37.435Z,99.99
2022-09-10T02:57:37.752Z,99.99
2022-09-10T02:58:38.788Z,99.99
2022-09-10T02:59:39.243Z,99.99
2022-09-10T03:00:40.145Z,99.99
2022-09-10T03:01:40.683Z,99.99
2022-09-10T03:02:41.004Z,99.99
2022-09-10T03:03:42.211Z,99.99
2022-09-10T03:04:42.105Z,99.99
2022-09-10T03:05:42.802Z,99.99
2022-09-10T03:06:42.984Z,99.99
2022-09-10T03:07:43.876Z,99.99
2022-09-10T03:08:44.588Z,99.99
2022-09-10T03:09:44.783Z,99.99
2022-09-10T03:10:45.679Z,99.99
2022-09-10T03:11:46.285Z,99.99
2022-09-10T03:12:47.175Z,99.99
2022-09-10T03:13:47.129Z,99.99
2022-09-10T03:14:48.046Z,99.99
2022-09-10T03:15:48.167Z,99.99
2022-09-10T03:16:49.481Z,99.99
2022-09-10T03:17:49.965Z,99.99
2022-09-10T03:18:50.277Z,99.99
2022-09-10T03:19:50.767Z,99.99
2022-09-10T03:20:51.684Z,99.99
2022-09-10T03:21:52.597Z,99.99
2022-09-10T03:22:52.640Z,99.99
2022-09-10T03:23:54.216Z,99.99
2022-09-10T03:24:53.897Z,99.99
2022-09-10T03:25:55.266Z,99.99
2022-09-10T03:26:55.900Z,99.99
2022-09-10T03:27:56.111Z,99.99
2022-09-10T03:28:57.082Z,99.99
2022-09-10T03:29:57.783Z,99.99
2022-09-10T03:30:57.963Z,99.99
2022-09-10T03:31:58.339Z,99.99
2022-09-10T03:32:58.375Z,99.99
2022-09-10T03:33:59.579Z,99.99
2022-09-10T03:35:00.542Z,99.99
2022-09-10T03:36:01.239Z,99.99
2022-09-10T03:37:01.852Z,99.99
2022-09-10T03:38:02.863Z,99.99
2022-09-10T03:39:03.051Z,99.99
2022-09-10T03:40:03.046Z,99.99
2022-09-10T03:41:03.340Z,99.99
2022-09-10T03:42:04.250Z,99.99
2022-09-10T03:43:04.841Z,99.99
2022-09-10T03:44:06.086Z,99.99
2022-09-10T03:45:06.267Z,99.99
2022-09-10T03:46:06.485Z,99.99
2022-09-10T03:47:06.791Z,99.99
2022-09-10T03:48:06.710Z,99.99
2022-09-10T03:49:07.623Z,99.99
2022-09-10T03:50:08.233Z,99.99
2022-09-10T03:51:09.156Z,99.99
2022-09-10T03:52:09.770Z,99.99
2022-09-10T03:53:10.080Z,99.99
2022-09-10T03:54:11.286Z,99.99
2022-09-10T03:55:11.620Z,99.99
2022-09-10T03:56:12.625Z,99.99
2022-09-10T03:57:12.837Z,99.99
2022-09-10T03:58:13.746Z,99.99
2022-09-10T03:59:13.994Z,99.99
2022-09-10T04:00:14.886Z,99.99
2022-09-10T04:01:15.849Z,99.99
2022-09-10T04:02:16.490Z,99.99
2022-09-10T04:03:17.350Z,99.99
2022-09-10T04:04:17.548Z,99.99
2022-09-10T04:05:18.453Z,99.99
2022-09-10T04:06:19.044Z,99.99
2022-09-10T04:07:19.661Z,99.99
2022-09-10T04:08:20.267Z,99.99
2022-09-10T04:09:21.127Z,99.99
2022-09-10T04:10:21.036Z,99.99
2022-09-10T04:11:21.944Z,99.99
2022-09-10T04:12:21.840Z,99.99
2022-09-10T04:13:22.725Z,99.99
2022-09-10T04:14:22.970Z,99.99
2022-09-10T04:15:23.874Z,99.99
2022-09-10T04:16:24.771Z,99.99
2022-09-10T04:17:24.876Z,99.99
2022-09-10T04:18:25.498Z,99.99
2022-09-10T04:19:26.140Z,99.99
2022-09-10T04:20:26.026Z,99.99
2022-09-10T04:21:26.647Z,99.99
2022-09-10T04:22:27.535Z,99.99
2022-09-10T04:23:28.167Z,99.99
2022-09-10T04:24:28.799Z,99.99
2022-09-10T04:25:29.705Z,99.99
2022-09-10T04:26:30.463Z,99.99
2022-09-10T04:27:30.793Z,99.99
2022-09-10T04:28:31.201Z,99.99
2022-09-10T04:29:31.322Z,99.99
2022-09-10T04:30:31.522Z,99.99
2022-09-10T04:31:31.976Z,99.99
2022-09-10T04:32:32.623Z,99.99
2022-09-10T04:33:33.511Z,99.99
2022-09-10T04:34:33.552Z,99.99
2022-09-10T04:35:34.186Z,99.99
2022-09-10T04:36:34.882Z,99.99
2022-09-10T04:37:35.510Z,99.99
2022-09-10T04:38:36.914Z,99.99
2022-09-10T04:39:37.170Z,99.99
2022-09-10T04:40:37.969Z,99.99
2022-09-10T04:41:37.862Z,99.99
2022-09-10T04:42:38.476Z,99.99
2022-09-10T04:43:39.378Z,99.99
2022-09-10T04:44:40.343Z,99.99
2022-09-10T04:45:40.357Z,99.99
2022-09-10T04:46:41.214Z,99.99
2022-09-10T04:47:42.430Z,99.99
2022-09-10T04:48:42.691Z,99.99
2022-09-10T04:49:43.895Z,99.99
2022-09-10T04:51:15.555Z,99.99
2022-09-10T04:51:45.714Z,99.99
2022-09-10T04:52:46.324Z,99.99
2022-09-10T04:53:46.915Z,99.99
2022-09-10T04:54:47.526Z,99.99
2022-09-10T04:55:47.438Z,99.99
2022-09-10T04:56:47.867Z,99.99
2022-09-10T04:57:48.199Z,99.99
2022-09-10T04:58:49.884Z,99.99
2022-09-10T04:59:50.106Z,99.99
2022-09-10T05:00:50.412Z,99.99
2022-09-10T05:01:50.900Z,99.99
2022-09-10T05:02:51.073Z,99.99
2022-09-10T05:03:52.257Z,99.99
2022-09-10T05:04:53.147Z,99.99
2022-09-10T05:05:54.065Z,99.99
2022-09-10T05:06:54.382Z,99.99
2022-09-10T05:07:54.571Z,99.99
2022-09-10T05:08:55.213Z,99.99
2022-09-10T05:09:56.122Z,99.99
2022-09-10T05:10:56.317Z,99.99
2022-09-10T05:11:56.508Z,99.99
2022-09-10T05:12:56.714Z,99.99
2022-09-10T05:13:57.047Z,99.99
2022-09-10T05:14:57.566Z,99.99
2022-09-10T05:15:57.761Z,99.99
2022-09-10T05:16:57.902Z,99.99
2022-09-10T05:17:57.865Z,99.99
2022-09-10T05:18:58.194Z,99.99
2022-09-10T05:19:59.534Z,99.99
2022-09-10T05:21:00.149Z,99.99
2022-09-10T05:22:00.767Z,99.99
2022-09-10T05:23:00.952Z,99.99
2022-09-10T05:24:01.863Z,99.99
2022-09-10T05:25:02.474Z,99.99
2022-09-10T05:26:03.656Z,99.99
2022-09-10T05:27:04.391Z,99.99
2022-09-10T05:28:04.994Z,99.99
2022-09-10T05:29:06.209Z,99.99
2022-09-10T05:30:07.154Z,99.99
2022-09-10T05:31:07.345Z,99.99
2022-09-10T05:32:08.187Z,99.99
2022-09-10T05:33:08.806Z,99.99
2022-09-10T05:34:10.006Z,99.99
2022-09-10T05:35:09.920Z,99.99
2022-09-10T05:36:10.818Z,99.99
2022-09-10T05:37:11.813Z,99.99
2022-09-10T05:38:12.001Z,99.99
2022-09-10T05:39:12.290Z,99.99
2022-09-10T05:40:13.036Z,99.99
2022-09-10T05:41:12.924Z,99.99
2022-09-10T05:42:13.815Z,99.99
2022-09-10T05:43:14.406Z,99.99
2022-09-10T05:44:15.615Z,99.99
2022-09-10T05:45:15.848Z,99.99
2022-09-10T05:46:16.859Z,99.99
2022-09-10T05:47:17.566Z,99.99
2022-09-10T05:48:18.782Z,99.99
2022-09-10T05:49:19.714Z,99.99
2022-09-10T05:50:19.625Z,99.99
2022-09-10T05:51:20.232Z,99.99
2022-09-10T05:52:21.179Z,99.99
2022-09-10T05:53:22.072Z,99.99
2022-09-10T05:54:22.258Z,99.99
2022-09-10T05:55:23.169Z,99.99
2022-09-10T05:56:23.505Z,99.99
2022-09-10T05:57:24.341Z,99.99
2022-09-10T05:58:25.256Z,99.99
2022-09-10T05:59:26.479Z,99.99
2022-09-10T06:00:27.199Z,99.99
2022-09-10T06:01:27.592Z,99.99
2022-09-10T06:02:29.915Z,99.99
2022-09-10T06:03:29.085Z,99.99
2022-09-10T06:04:30.001Z,99.99
2022-09-10T06:05:30.916Z,99.99
2022-09-10T06:06:31.576Z,99.99
2022-09-10T06:07:31.873Z,99.99
2022-09-10T06:08:32.138Z,99.99
2022-09-10T06:09:33.039Z,99.99
2022-09-10T06:10:32.957Z,99.99
2022-09-10T06:11:33.576Z,99.99
2022-09-10T06:12:34.469Z,99.99
2022-09-10T06:13:34.809Z,99.99
2022-09-10T06:14:36.019Z,99.99
2022-09-10T06:15:36.254Z,99.99
2022-09-10T06:16:36.561Z,99.99
2022-09-10T06:17:37.234Z,99.99
2022-09-10T06:18:38.136Z,99.99
2022-09-10T06:19:38.197Z,99.99
2022-09-10T06:20:38.687Z,99.99
2022-09-10T06:21:39.303Z,99.99
2022-09-10T06:22:39.934Z,99.99
2022-09-10T06:23:40.249Z,99.99
2022-09-10T06:24:40.840Z,99.99
2022-09-10T06:25:41.761Z,99.99
2022-09-10T06:26:42.375Z,99.99
2022-09-10T06:27:43.690Z,99.99
2022-09-10T06:28:43.882Z,99.99
2022-09-10T06:29:44.078Z,99.99
2022-09-10T06:30:44.525Z,99.99
2022-09-10T06:31:45.397Z,99.99
2022-09-10T06:32:45.892Z,99.99
2022-09-10T06:33:46.399Z,99.99
2022-09-10T06:34:46.293Z,99.99
2022-09-10T06:35:46.627Z,99.99
2022-09-10T06:36:47.772Z,99.99
2022-09-10T06:37:48.474Z,99.99
2022-09-10T06:38:48.387Z,99.99
2022-09-10T06:39:49.768Z,99.99
2022-09-10T06:40:50.388Z,99.99
2022-09-10T06:41:54.744Z,99.99
2022-09-10T06:42:51.659Z,99.99
2022-09-10T06:43:52.577Z,99.99
2022-09-10T06:44:53.467Z,99.99
2022-09-10T06:45:54.252Z,99.99
2022-09-10T06:48:19.053Z,99.99
2022-09-10T06:49:30.726Z,99.99
2022-09-10T06:50:31.658Z,99.99
2022-09-10T06:51:31.573Z,99.99
2022-09-10T06:52:32.486Z,99.99
2022-09-10T06:53:32.688Z,99.99
2022-09-10T06:54:33.605Z,99.99
2022-09-10T06:55:33.913Z,99.99
2022-09-10T06:56:34.530Z,99.99
2022-09-10T06:57:35.147Z,99.99
2022-09-10T06:58:36.291Z,99.99
2022-09-10T06:59:36.301Z,99.99
2022-09-10T07:00:37.491Z,99.99
2022-09-10T07:01:38.779Z,99.99
2022-09-10T07:02:38.540Z,99.99
2022-09-10T07:03:38.862Z,99.99
2022-09-10T07:04:39.793Z,99.99
2022-09-10T07:05:40.720Z,99.99
2022-09-10T07:06:40.635Z,99.99
2022-09-10T07:07:41.536Z,99.99
2022-09-10T07:08:42.561Z,99.99
2022-09-10T07:09:42.862Z,99.99
2022-09-10T07:10:43.055Z,99.99
2022-09-10T07:11:46.879Z,99.99
2022-09-10T07:12:44.473Z,99.99
2022-09-10T07:13:44.664Z,99.99
2022-09-10T07:14:44.852Z,99.99
2022-09-10T07:15:45.852Z,99.99
2022-09-10T07:16:46.004Z,99.99
2022-09-10T07:17:46.187Z,99.99
2022-09-10T07:18:47.382Z,99.99
2022-09-10T07:19:47.799Z,99.99
2022-09-10T07:20:48.414Z,99.99
2022-09-10T07:21:49.340Z,99.99
2022-09-10T07:22:50.238Z,99.99
2022-09-10T07:23:51.288Z,99.99
2022-09-10T07:24:51.727Z,99.99
2022-09-10T07:25:52.063Z,99.99
2022-09-10T07:26:52.978Z,99.99
2022-09-10T07:27:53.892Z,99.99
2022-09-10T07:28:54.737Z,99.99
2022-09-10T07:29:55.171Z,99.99
2022-09-10T07:30:56.140Z,99.99
2022-09-10T07:31:56.490Z,99.99
2022-09-10T07:32:57.160Z,99.99
2022-09-10T07:33:57.777Z,99.99
2022-09-10T07:34:58.386Z,99.99
2022-09-10T07:35:58.292Z,99.99
2022-09-10T07:36:58.920Z,99.99
2022-09-10T07:37:59.819Z,99.99
2022-09-10T07:39:00.448Z,99.99
2022-09-10T07:40:01.108Z,99.99
2022-09-10T07:41:01.239Z,99.99
2022-09-10T07:42:01.834Z,99.99
2022-09-10T07:43:02.745Z,99.99
2022-09-10T07:44:03.061Z,99.99
2022-09-10T07:45:03.703Z,99.99
2022-09-10T07:46:09.628Z,99.99
2022-09-10T07:47:05.095Z,99.99
2022-09-10T07:48:05.708Z,99.99
2022-09-10T07:49:06.601Z,99.99
2022-09-10T07:50:07.623Z,99.99
2022-09-10T07:51:07.828Z,99.99
2022-09-10T07:52:08.443Z,99.99
2022-09-10T07:53:09.082Z,99.99
2022-09-10T07:54:09.710Z,99.99
2022-09-10T07:55:10.047Z,99.99
2022-09-10T07:56:10.951Z,99.99
2022-09-10T07:57:11.860Z,99.99
2022-09-10T07:58:12.775Z,99.99
2022-09-10T07:59:13.398Z,99.99
2022-09-10T08:00:13.958Z,99.99
2022-09-10T08:01:13.996Z,99.99
2022-09-10T08:02:14.276Z,99.99
2022-09-10T08:03:14.843Z,99.99
2022-09-10T08:04:15.756Z,99.99
2022-09-10T08:05:16.688Z,99.99
2022-09-10T08:06:17.625Z,99.99
2022-09-10T08:07:17.815Z,99.99
2022-09-10T08:08:17.739Z,99.99
2022-09-10T08:09:18.949Z,99.99
2022-09-10T08:10:19.966Z,99.99
2022-09-10T08:11:20.889Z,99.99
2022-09-10T08:12:21.827Z,99.99
2022-09-10T08:13:21.737Z,99.99
2022-09-10T08:14:22.350Z,99.99
2022-09-10T08:15:22.960Z,99.99
2022-09-10T08:16:24.246Z,99.99
2022-09-10T08:17:24.189Z,99.99
2022-09-10T08:18:24.843Z,99.99
2022-09-10T08:19:25.897Z,99.99
2022-09-10T08:20:26.741Z,99.99
2022-09-10T08:21:27.345Z,99.99
2022-09-10T08:22:28.244Z,99.99
2022-09-10T08:23:28.576Z,99.99
2022-09-10T08:24:29.216Z,99.99
2022-09-10T08:25:29.449Z,99.99
2022-09-10T08:26:30.364Z,99.99
2022-09-10T08:27:31.035Z,99.99
2022-09-10T08:28:31.914Z,99.99
2022-09-10T08:29:31.918Z,99.99
2022-09-10T08:30:32.635Z,99.99
2022-09-10T08:31:32.878Z,99.99
2022-09-10T08:32:34.121Z,99.99
2022-09-10T08:33:34.024Z,99.99
2022-09-10T08:34:34.968Z,99.99
2022-09-10T08:35:35.605Z,99.99
2022-09-10T08:36:36.211Z,99.99
2022-09-10T08:37:37.407Z,99.99
2022-09-10T08:38:38.412Z,99.99
2022-09-10T08:39:38.710Z,99.99
2022-09-10T08:40:38.595Z,99.99
2022-09-10T08:41:39.094Z,99.99
2022-09-10T08:42:39.427Z,99.99
2022-09-10T08:43:40.348Z,99.99
2022-09-10T08:44:41.291Z,99.99
2022-09-10T08:45:42.010Z,99.99
2022-09-10T08:46:42.841Z,99.99
2022-09-10T08:47:43.375Z,99.99
2022-09-10T08:48:44.122Z,99.99
2022-09-10T08:49:44.460Z,99.99
2022-09-10T08:50:45.443Z,99.99
2022-09-10T08:51:46.670Z,99.99
2022-09-10T08:52:47.285Z,99.99
2022-09-10T08:53:47.322Z,99.99
2022-09-10T08:54:48.261Z,99.99
2022-09-10T08:55:52.632Z,99.99
2022-09-10T08:56:49.826Z,99.99
2022-09-10T08:57:49.721Z,99.99
2022-09-10T08:58:50.612Z,99.99
2022-09-10T08:59:51.826Z,99.99
2022-09-10T09:00:52.548Z,99.99
2022-09-10T09:01:52.609Z,99.99
2022-09-10T09:02:55.397Z,99.99
2022-09-10T09:03:53.407Z,99.99
2022-09-10T09:04:54.521Z,99.99
2022-09-10T09:05:55.131Z,99.99
2022-09-10T09:06:56.348Z,99.99
2022-09-10T09:07:56.957Z,99.99
2022-09-10T09:08:57.579Z,99.99
2022-09-10T09:09:57.912Z,99.99
2022-09-10T09:10:58.638Z,99.99
2022-09-10T09:11:59.539Z,99.99
2022-09-10T09:13:00.725Z,99.99
2022-09-10T09:14:01.337Z,99.99
2022-09-10T09:15:04.726Z,99.99
2022-09-10T09:16:02.725Z,99.99
2022-09-10T09:17:03.219Z,99.99
2022-09-10T09:18:03.597Z,99.99
2022-09-10T09:19:04.801Z,99.99
2022-09-10T09:20:04.993Z,99.99
2022-09-10T09:21:05.705Z,99.99
2022-09-10T09:22:05.918Z,99.99
2022-09-10T09:23:06.828Z,99.99
2022-09-10T09:24:20.654Z,99.99
2022-09-10T09:25:07.282Z,99.99
2022-09-10T09:26:07.488Z,99.99
2022-09-10T09:27:07.681Z,99.99
2022-09-10T09:28:07.566Z,99.99
2022-09-10T09:29:08.055Z,99.99
2022-09-10T09:30:08.966Z,99.99
2022-09-10T09:31:14.387Z,99.99
2022-09-10T09:32:09.962Z,99.99
2022-09-10T09:33:10.893Z,99.99
2022-09-10T09:34:11.386Z,99.99
2022-09-10T09:35:12.283Z,99.99
2022-09-10T09:36:12.896Z,99.99
2022-09-10T09:37:13.400Z,99.99
2022-09-10T09:38:13.310Z,99.99
2022-09-10T09:39:14.229Z,99.99
2022-09-10T09:40:14.489Z,99.99
2022-09-10T09:41:14.816Z,99.99
2022-09-10T09:42:15.005Z,99.99
2022-09-10T09:43:15.921Z,99.99
2022-09-10T09:44:16.560Z,99.99
2022-09-10T09:45:16.472Z,99.99
2022-09-10T09:46:17.791Z,99.99
2022-09-10T09:47:18.129Z,99.99
2022-09-10T09:48:19.366Z,99.99
2022-09-10T09:49:19.556Z,99.99
2022-09-10T09:50:20.474Z,99.99
2022-09-10T09:51:21.184Z,99.99
2022-09-10T09:52:22.393Z,99.99
2022-09-10T09:53:22.593Z,99.99
2022-09-10T09:55:14.583Z,99.99
2022-09-10T09:55:33.161Z,99.99
2022-09-10T09:56:33.480Z,99.99
2022-09-10T09:57:34.123Z,99.99
2022-09-10T09:58:35.031Z,99.99
2022-09-10T09:59:35.099Z,99.99
2022-09-10T10:00:35.589Z,99.99
2022-09-10T10:01:36.195Z,99.99
2022-09-10T10:02:37.092Z,99.99
2022-09-10T10:03:38.180Z,99.99
2022-09-10T10:04:42.097Z,99.99
2022-09-10T10:05:39.484Z,99.99
2022-09-10T10:06:40.397Z,99.99
2022-09-10T10:07:40.607Z,99.99
2022-09-10T10:08:41.533Z,99.99
2022-09-10T10:09:41.238Z,99.99
2022-09-10T10:10:42.464Z,99.99
2022-09-10T10:11:43.200Z,99.99
2022-09-10T10:12:43.814Z,99.99
2022-09-10T10:13:44.009Z,99.99
2022-09-10T10:14:44.194Z,99.99
2022-09-10T10:15:44.527Z,99.99
2022-09-10T10:16:45.267Z,99.99
2022-09-10T10:17:45.791Z,99.99
2022-09-10T10:18:45.908Z,99.99
2022-09-10T10:19:45.830Z,99.99
2022-09-10T10:20:47.023Z,99.99
2022-09-10T10:21:48.079Z,99.99
2022-09-10T10:22:48.707Z,99.99
2022-09-10T10:23:49.766Z,99.99
2022-09-10T10:24:50.366Z,99.99
2022-09-10T10:25:51.567Z,99.99
2022-09-10T10:26:51.459Z,99.99
2022-09-10T10:27:52.371Z,99.99
2022-09-10T10:28:52.266Z,99.99
2022-09-10T10:29:52.868Z,99.99
2022-09-10T10:30:53.907Z,99.99
2022-09-10T10:31:54.798Z,99.99
2022-09-10T10:32:55.142Z,99.99
2022-09-10T10:33:56.404Z,99.99
2022-09-10T10:34:56.298Z,99.99
2022-09-10T10:35:56.917Z,99.99
2022-09-10T10:36:57.808Z,99.99
2022-09-10T10:37:58.734Z,99.99
2022-09-10T10:38:59.950Z,99.99
2022-09-10T10:40:00.572Z,99.99
2022-09-10T10:41:01.325Z,99.99
2022-09-10T10:42:02.038Z,99.99
2022-09-10T10:43:02.628Z,99.99
2022-09-10T10:44:03.235Z,99.99
2022-09-10T10:45:03.850Z,99.99
2022-09-10T10:46:07.595Z,99.99
2022-09-10T10:47:05.039Z,99.99
2022-09-10T10:48:05.955Z,99.99
2022-09-10T10:49:08.948Z,99.99
2022-09-10T10:50:06.442Z,99.99
2022-09-10T10:51:07.383Z,99.99
2022-09-10T10:52:08.100Z,99.99
2022-09-10T10:53:09.305Z,99.99
2022-09-10T10:54:10.283Z,99.99
2022-09-10T10:55:10.902Z,99.99
2022-09-10T10:56:11.408Z,99.99
2022-09-10T10:57:11.317Z,99.99
2022-09-10T10:58:12.359Z,99.99
2022-09-10T10:59:13.573Z,99.99
2022-09-10T11:00:14.199Z,99.99
2022-09-10T11:01:15.154Z,99.99
2022-09-10T11:02:15.498Z,99.99
2022-09-10T11:03:16.131Z,99.99
2022-09-10T11:04:16.400Z,99.99
2022-09-10T11:05:16.910Z,99.99
2022-09-10T11:06:17.104Z,99.99
2022-09-10T11:07:16.995Z,99.99
2022-09-10T11:08:17.330Z,99.99
2022-09-10T11:09:18.548Z,99.99
2022-09-10T11:10:18.741Z,99.99
2022-09-10T11:11:19.687Z,99.99
2022-09-10T11:12:20.410Z,99.99
2022-09-10T11:13:21.031Z,99.99
2022-09-10T11:14:21.350Z,99.99
2022-09-10T11:15:22.288Z,99.99
2022-09-10T11:16:23.146Z,99.99
2022-09-10T11:17:24.224Z,99.99
2022-09-10T11:18:24.121Z,99.99
2022-09-10T11:19:25.070Z,99.99
2022-09-10T11:20:35.098Z,99.99
2022-09-10T11:21:27.038Z,99.99
2022-09-10T11:22:27.734Z,99.99
2022-09-10T11:23:28.944Z,99.99
2022-09-10T11:24:29.144Z,99.99
2022-09-10T11:25:29.643Z,99.99
2022-09-10T11:26:30.581Z,99.99
2022-09-10T11:27:31.205Z,99.99
2022-09-10T11:28:31.961Z,99.99
2022-09-10T11:29:32.341Z,99.99
2022-09-10T11:30:32.959Z,99.99
2022-09-10T11:31:33.474Z,99.99
2022-09-10T11:32:33.808Z,99.99
2022-09-10T11:33:34.130Z,99.99
2022-09-10T11:34:34.809Z,99.99
2022-09-10T11:35:35.707Z,99.99
2022-09-10T11:36:36.609Z,99.99
2022-09-10T11:37:36.509Z,99.99
2022-09-10T11:38:37.521Z,99.99
2022-09-10T11:39:38.513Z,99.99
2022-09-10T11:40:38.585Z,99.99
2022-09-10T11:41:39.094Z,99.99
2022-09-10T11:42:39.813Z,99.99
2022-09-10T11:43:40.841Z,99.99
2022-09-10T11:44:41.854Z,99.26
2022-09-10T11:45:41.480Z,96.56
2022-09-10T11:46:42.302Z,94.97
2022-09-10T11:47:42.525Z,93.87
2022-09-10T11:48:43.210Z,92.76
2022-09-10T11:49:43.744Z,88.81
2022-09-10T11:50:43.979Z,89.81
2022-09-10T11:51:44.322Z,90.48
2022-09-10T11:52:45.365Z,92.51
2022-09-10T11:53:46.307Z,91.99
2022-09-10T11:54:46.530Z,89.09
2022-09-10T11:55:47.161Z,90.25
2022-09-10T11:56:48.086Z,91.99
2022-09-10T11:57:48.996Z,92.47
2022-09-10T11:58:49.592Z,92.08
2022-09-10T11:59:50.816Z,90.83
2022-09-10T12:00:51.467Z,87.65
2022-09-10T12:01:51.950Z,90.97
2022-09-10T12:02:51.684Z,92.42
2022-09-10T12:03:52.687Z,91.36
2022-09-10T12:04:53.446Z,92.57
2022-09-10T12:05:53.960Z,93.72
2022-09-10T12:06:54.007Z,93.53
2022-09-10T12:07:54.651Z,94.3
2022-09-10T12:08:54.568Z,92.47
2022-09-10T12:09:55.497Z,90.83
2022-09-10T12:10:55.935Z,95.07
2022-09-10T12:11:56.452Z,95.31
2022-09-10T12:12:57.480Z,95.94
2022-09-10T12:13:57.825Z,95.26
2022-09-10T12:14:58.735Z,95.65
2022-09-10T12:15:59.735Z,94.78
2022-09-10T12:16:59.713Z,94.49
2022-09-10T12:18:00.034Z,92.8
2022-09-10T12:19:01.231Z,93.96
2022-09-10T12:20:01.499Z,93.87
2022-09-10T12:21:01.866Z,93.57
2022-09-10T12:22:02.223Z,92.71
2022-09-10T12:23:03.202Z,92.9
2022-09-10T12:24:04.409Z,92.13
2022-09-10T12:25:04.729Z,91.75
2022-09-10T12:26:05.926Z,92.9
2022-09-10T12:27:06.861Z,92.71
2022-09-10T12:28:07.618Z,94.1
2022-09-10T12:29:08.120Z,93.05
2022-09-10T12:30:08.223Z,92.85
2022-09-10T12:31:09.006Z,94.49
2022-09-10T12:32:09.386Z,93.58
2022-09-10T12:33:09.803Z,95.31
2022-09-10T12:34:10.428Z,96.47
2022-09-10T12:35:11.369Z,97.33
2022-09-10T12:36:11.600Z,96.47
2022-09-10T12:37:12.219Z,97.14
2022-09-10T12:38:13.152Z,97.33
2022-09-10T12:39:13.672Z,97.52
2022-09-10T12:40:18.657Z,97.24
2022-09-10T12:41:15.303Z,96.47
2022-09-10T12:42:15.666Z,96.03
2022-09-10T12:43:16.689Z,95.74
2022-09-10T12:44:17.619Z,94.59
2022-09-10T12:45:18.281Z,93.62
2022-09-10T12:46:18.688Z,93.43
2022-09-10T12:47:18.938Z,93.77
2022-09-10T12:48:22.892Z,93.77
2022-09-10T12:49:20.704Z,93.96
2022-09-10T12:50:21.052Z,93.29
2022-09-10T12:51:21.556Z,92.9
2022-09-10T12:52:22.042Z,92.9
2022-09-10T12:53:23.072Z,91.75
2022-09-10T12:54:23.295Z,91.94
2022-09-10T12:55:23.919Z,92.13
2022-09-10T12:56:24.541Z,92.95
2022-09-10T12:57:25.773Z,92.57
2022-09-10T12:58:27.838Z,93.68
2022-09-10T12:59:26.741Z,95.94
2022-09-10T13:00:27.707Z,95.84
2022-09-10T13:01:28.067Z,95.55
2022-09-10T13:02:28.563Z,96.9